^^
Grace C. Lehan Memorial Weather Station Historical Data
Daily Summary for July 8, 2022 Units:  Both    English   Metric
Daily Weekly Monthly Yearly
  High: Low: Average:
Temperature: 78.8 °F /  26 °C 58.5 °F /  14.7 °C 67.6 °F /  19.8 °C
Dew Point: 64.3 °F /  17.9 °C 52.9 °F /  11.6 °C 58.6 °F /  14.8 °C
Humidity: 96.3% 48.3% 75%
Wind Speed: 3.4mph /  5.5km/h - 0.5mph /  0.8km/h
Wind Gust: 12mph /  19.3km/h - -
Wind- - ESE
Pressure: 29.94 in /  1013.8 hPa 29.84 in /  1010.4 hPa -
Precipitation: 0.00 in /  0 mm    
 
 
Tabular Data for July 8, 2022
Time Temperature Dew Point Pressure Wind Wind Speed Wind Gust Humidity Rainfall Rate (Hourly) solar
00:00 66.1 °F /  18.9 °C 61.1 °F /  16.2 °C 29.94in /  1013.8hPa Calm   2mph /  3.2km/h 84% 0.00in /  0mm 0 W/m2
00:09 65.8 °F /  18.8 °C 60.9 °F /  16.1 °C 29.94in /  1013.8hPa Calm     84% 0.00in /  0mm 0 W/m2
00:14 65.7 °F /  18.7 °C 61 °F /  16.1 °C 29.93in /  1013.4hPa Calm     84.8% 0.00in /  0mm 0 W/m2
00:19 65.5 °F /  18.6 °C 60.9 °F /  16.1 °C 29.93in /  1013.4hPa Calm     85% 0.00in /  0mm 0 W/m2
00:24 65.3 °F /  18.5 °C 60.7 °F /  15.9 °C 29.93in /  1013.4hPa Calm     85% 0.00in /  0mm 0 W/m2
00:29 65.1 °F /  18.4 °C 60.5 °F /  15.8 °C 29.93in /  1013.4hPa Calm     85% 0.00in /  0mm 0 W/m2
00:34 64.9 °F /  18.3 °C 60.3 °F /  15.7 °C 29.93in /  1013.4hPa Calm     85% 0.00in /  0mm 0 W/m2
00:39 64.7 °F /  18.2 °C 60.2 °F /  15.7 °C 29.93in /  1013.4hPa Calm     85.2% 0.00in /  0mm 0 W/m2
00:44 64.5 °F /  18.1 °C 59.9 °F /  15.5 °C 29.93in /  1013.4hPa Calm     85.1% 0.00in /  0mm 0 W/m2
00:49 64.3 °F /  17.9 °C 60.1 °F /  15.6 °C 29.93in /  1013.4hPa Calm     86% 0.00in /  0mm 0 W/m2
00:54 64.2 °F /  17.9 °C 59.9 °F /  15.5 °C 29.93in /  1013.4hPa Calm     86% 0.00in /  0mm 0 W/m2
00:59 64 °F /  17.8 °C 59.7 °F /  15.4 °C 29.93in /  1013.4hPa Calm     86% 0.00in /  0mm 0 W/m2
01:04 63.8 °F /  17.7 °C 59.5 °F /  15.3 °C 29.93in /  1013.4hPa Calm     86% 0.00in /  0mm 0 W/m2
01:09 63.6 °F /  17.6 °C 59.4 °F /  15.2 °C 29.93in /  1013.4hPa Calm     86% 0.00in /  0mm 0 W/m2
01:14 63.5 °F /  17.5 °C 59.5 °F /  15.3 °C 29.93in /  1013.4hPa Calm     86.7% 0.00in /  0mm 0 W/m2
01:19 63.4 °F /  17.4 °C 59.5 °F /  15.3 °C 29.93in /  1013.4hPa Calm     87% 0.00in /  0mm 0 W/m2
01:24 63.3 °F /  17.4 °C 59.3 °F /  15.2 °C 29.93in /  1013.4hPa Calm     87% 0.00in /  0mm 0 W/m2
01:29 63.1 °F /  17.3 °C 59.5 °F /  15.3 °C 29.93in /  1013.4hPa Calm     87.8% 0.00in /  0mm 0 W/m2
01:34 63 °F /  17.2 °C 59.4 °F /  15.2 °C 29.93in /  1013.4hPa Calm     88% 0.00in /  0mm 0 W/m2
01:39 62.9 °F /  17.2 °C 59.3 °F /  15.2 °C 29.93in /  1013.4hPa Calm     88% 0.00in /  0mm 0 W/m2
01:44 62.8 °F /  17.1 °C 59.2 °F /  15.1 °C 29.93in /  1013.4hPa Calm     88% 0.00in /  0mm 0 W/m2
01:49 62.7 °F /  17.1 °C 59.3 °F /  15.2 °C 29.93in /  1013.4hPa Calm     88.7% 0.00in /  0mm 0 W/m2
01:54 62.5 °F /  16.9 °C 59.2 °F /  15.1 °C 29.93in /  1013.4hPa Calm     89% 0.00in /  0mm 0 W/m2
01:59 62.4 °F /  16.9 °C 59.1 °F /  15.1 °C 29.93in /  1013.4hPa Calm     89% 0.00in /  0mm 0 W/m2
02:04 62.3 °F /  16.8 °C 59.1 °F /  15.1 °C 29.92in /  1013.1hPa Calm     89.3% 0.00in /  0mm 0 W/m2
02:09 62.2 °F /  16.8 °C 59.2 °F /  15.1 °C 29.92in /  1013.1hPa Calm     90% 0.00in /  0mm 0 W/m2
02:14 62.1 °F /  16.7 °C 59.2 °F /  15.1 °C 29.92in /  1013.1hPa Calm     90.4% 0.00in /  0mm 0 W/m2
02:19 62 °F /  16.7 °C 59.3 °F /  15.2 °C 29.92in /  1013.1hPa Calm     91% 0.00in /  0mm 0 W/m2
02:24 61.9 °F /  16.6 °C 59.2 °F /  15.1 °C 29.92in /  1013.1hPa Calm     91% 0.00in /  0mm 0 W/m2
02:29 61.8 °F /  16.6 °C 59.1 °F /  15.1 °C 29.92in /  1013.1hPa Calm     91% 0.00in /  0mm 0 W/m2
02:34 61.6 °F /  16.4 °C 59 °F /  15 °C 29.92in /  1013.1hPa Calm     91% 0.00in /  0mm 0 W/m2
02:39 61.5 °F /  16.4 °C 58.9 °F /  14.9 °C 29.92in /  1013.1hPa Calm     91% 0.00in /  0mm 0 W/m2
02:44 61.4 °F /  16.3 °C 58.7 °F /  14.8 °C 29.92in /  1013.1hPa Calm     91% 0.00in /  0mm 0 W/m2
02:49 61.3 °F /  16.3 °C 58.7 °F /  14.8 °C 29.92in /  1013.1hPa Calm     91% 0.00in /  0mm 0 W/m2
02:54 61.2 °F /  16.2 °C 58.7 °F /  14.8 °C 29.92in /  1013.1hPa Calm     91.6% 0.00in /  0mm 0 W/m2
02:59 61.1 °F /  16.2 °C 58.8 °F /  14.9 °C 29.92in /  1013.1hPa Calm     92% 0.00in /  0mm 0 W/m2
03:04 61.1 °F /  16.2 °C 58.7 °F /  14.8 °C 29.92in /  1013.1hPa Calm     92% 0.00in /  0mm 0 W/m2
03:09 61 °F /  16.1 °C 58.6 °F /  14.8 °C 29.92in /  1013.1hPa Calm     92% 0.00in /  0mm 0 W/m2
03:14 60.9 °F /  16.1 °C 58.5 °F /  14.7 °C 29.92in /  1013.1hPa Calm     92% 0.00in /  0mm 0 W/m2
03:19 60.8 °F /  16 °C 58.5 °F /  14.7 °C 29.92in /  1013.1hPa Calm     92% 0.00in /  0mm 0 W/m2
03:24 60.7 °F /  15.9 °C 58.4 °F /  14.7 °C 29.92in /  1013.1hPa Calm     92% 0.00in /  0mm 0 W/m2
03:29 60.6 °F /  15.9 °C 58.3 °F /  14.6 °C 29.92in /  1013.1hPa Calm     92% 0.00in /  0mm 0 W/m2
03:34 60.5 °F /  15.8 °C 58.2 °F /  14.6 °C 29.91in /  1012.8hPa Calm     92.1% 0.00in /  0mm 0 W/m2
03:39 60.4 °F /  15.8 °C 58.4 °F /  14.7 °C 29.91in /  1012.8hPa Calm     93% 0.00in /  0mm 0 W/m2
03:44 60.3 °F /  15.7 °C 58.3 °F /  14.6 °C 29.91in /  1012.8hPa Calm     93% 0.00in /  0mm 0 W/m2
03:49 60.3 °F /  15.7 °C 58.2 °F /  14.6 °C 29.91in /  1012.8hPa Calm     93% 0.00in /  0mm 0 W/m2
03:54 60.2 °F /  15.7 °C 58.2 °F /  14.6 °C 29.91in /  1012.8hPa Calm     93% 0.00in /  0mm 0 W/m2
03:59 60.1 °F /  15.6 °C 58.1 °F /  14.5 °C 29.91in /  1012.8hPa Calm     93% 0.00in /  0mm 0 W/m2
04:09 60.1 °F /  15.6 °C 58 °F /  14.4 °C 29.91in /  1012.8hPa Calm     93% 0.00in /  0mm 0 W/m2
04:14 60 °F /  15.6 °C 58 °F /  14.4 °C 29.91in /  1012.8hPa Calm     93% 0.00in /  0mm 0 W/m2
04:19 60 °F /  15.6 °C 57.9 °F /  14.4 °C 29.91in /  1012.8hPa Calm     93% 0.00in /  0mm 0 W/m2
04:24 59.9 °F /  15.5 °C 57.9 °F /  14.4 °C 29.91in /  1012.8hPa Calm     93.2% 0.00in /  0mm 0 W/m2
04:29 59.9 °F /  15.5 °C 58 °F /  14.4 °C 29.91in /  1012.8hPa Calm     93.4% 0.00in /  0mm 0 W/m2
04:34 59.8 °F /  15.4 °C 57.8 °F /  14.3 °C 29.91in /  1012.8hPa Calm     93% 0.00in /  0mm 0 W/m2
04:39 59.7 °F /  15.4 °C 57.9 °F /  14.4 °C 29.91in /  1012.8hPa Calm     93.7% 0.00in /  0mm 0 W/m2
04:44 59.7 °F /  15.4 °C 57.9 °F /  14.4 °C 29.92in /  1013.1hPa Calm     94% 0.00in /  0mm 0 W/m2
04:49 59.6 °F /  15.3 °C 57.9 °F /  14.4 °C 29.92in /  1013.1hPa Calm     94% 0.00in /  0mm 0 W/m2
04:54 59.6 °F /  15.3 °C 57.9 °F /  14.4 °C 29.92in /  1013.1hPa Calm     94% 0.00in /  0mm 0 W/m2
04:59 59.6 °F /  15.3 °C 57.8 °F /  14.3 °C 29.91in /  1012.8hPa Calm     94% 0.00in /  0mm 0 W/m2
05:04 59.5 °F /  15.3 °C 57.8 °F /  14.3 °C 29.91in /  1012.8hPa Calm     94% 0.00in /  0mm 0 W/m2
05:09 59.5 °F /  15.3 °C 57.7 °F /  14.3 °C 29.91in /  1012.8hPa Calm     94% 0.00in /  0mm 0 W/m2
05:14 59.4 °F /  15.2 °C 57.7 °F /  14.3 °C 29.91in /  1012.8hPa Calm     94% 0.00in /  0mm 0 W/m2
05:19 59.3 °F /  15.2 °C 57.6 °F /  14.2 °C 29.91in /  1012.8hPa Calm     94% 0.00in /  0mm 0 W/m2
05:24 59.3 °F /  15.2 °C 57.6 °F /  14.2 °C 29.91in /  1012.8hPa Calm     94% 0.00in /  0mm 0 W/m2
05:29 59.3 °F /  15.2 °C 57.6 °F /  14.2 °C 29.91in /  1012.8hPa Calm     94% 0.00in /  0mm 0 W/m2
05:34 59.2 °F /  15.1 °C 57.5 °F /  14.2 °C 29.91in /  1012.8hPa Calm     94% 0.00in /  0mm 0 W/m2
05:39 59.2 °F /  15.1 °C 57.5 °F /  14.2 °C 29.91in /  1012.8hPa Calm     94% 0.00in /  0mm 0 W/m2
05:44 59.2 °F /  15.1 °C 57.5 °F /  14.2 °C 29.91in /  1012.8hPa Calm     94% 0.00in /  0mm 0 W/m2
05:49 59.1 °F /  15.1 °C 57.4 °F /  14.1 °C 29.92in /  1013.1hPa Calm     94% 0.00in /  0mm 0 W/m2
05:54 59.1 °F /  15.1 °C 57.5 °F /  14.2 °C 29.92in /  1013.1hPa Calm     94.5% 0.00in /  0mm 0 W/m2
05:59 59 °F /  15 °C 57.6 °F /  14.2 °C 29.92in /  1013.1hPa Calm     95% 0.00in /  0mm 0 W/m2
06:04 59 °F /  15 °C 57.6 °F /  14.2 °C 29.92in /  1013.1hPa Calm     95% 0.00in /  0mm 0 W/m2
06:09 58.9 °F /  14.9 °C 57.5 °F /  14.2 °C 29.92in /  1013.1hPa Calm     95% 0.00in /  0mm 0 W/m2
06:14 58.9 °F /  14.9 °C 57.4 °F /  14.1 °C 29.92in /  1013.1hPa Calm     95% 0.00in /  0mm 0 W/m2
06:19 58.8 °F /  14.9 °C 57.1 °F /  13.9 °C 29.92in /  1013.1hPa Calm     94.1% 0.00in /  0mm 0 W/m2
06:24 58.7 °F /  14.8 °C 57 °F /  13.9 °C 29.92in /  1013.1hPa Calm     94% 0.00in /  0mm 0 W/m2
06:29 58.6 °F /  14.8 °C 57.1 °F /  13.9 °C 29.92in /  1013.1hPa Calm     94.6% 0.00in /  0mm 5 W/m2
06:34 58.6 °F /  14.8 °C 57.2 °F /  14 °C 29.92in /  1013.1hPa Calm     95% 0.00in /  0mm 7 W/m2
06:39 58.5 °F /  14.7 °C 57.1 °F /  13.9 °C 29.92in /  1013.1hPa Calm     95% 0.00in /  0mm 11 W/m2
06:44 58.5 °F /  14.7 °C 57.1 °F /  13.9 °C 29.92in /  1013.1hPa Calm     95% 0.00in /  0mm 14 W/m2
06:49 58.6 °F /  14.8 °C 57.1 °F /  13.9 °C 29.92in /  1013.1hPa Calm     95% 0.00in /  0mm 14 W/m2
06:54 58.6 °F /  14.8 °C 57.2 °F /  14 °C 29.92in /  1013.1hPa Calm     95% 0.00in /  0mm 12 W/m2
06:59 58.7 °F /  14.8 °C 57.3 °F /  14.1 °C 29.93in /  1013.4hPa Calm     95% 0.00in /  0mm 14 W/m2
07:04 58.7 °F /  14.8 °C 57.3 °F /  14.1 °C 29.92in /  1013.1hPa Calm     95% 0.00in /  0mm 16 W/m2
07:09 58.8 °F /  14.9 °C 57.4 °F /  14.1 °C 29.93in /  1013.4hPa Calm     95% 0.00in /  0mm 16 W/m2
07:14 58.9 °F /  14.9 °C 57.5 °F /  14.2 °C 29.93in /  1013.4hPa Calm     95% 0.00in /  0mm 18 W/m2
07:19 59 °F /  15 °C 58 °F /  14.4 °C 29.93in /  1013.4hPa Calm     96.3% 0.00in /  0mm 19 W/m2
07:24 59.2 °F /  15.1 °C 58.1 °F /  14.5 °C 29.93in /  1013.4hPa Calm     96% 0.00in /  0mm 21 W/m2
07:29 59.3 °F /  15.2 °C 58.2 °F /  14.6 °C 29.93in /  1013.4hPa Calm     96% 0.00in /  0mm 23 W/m2
07:34 59.5 °F /  15.3 °C 58.4 °F /  14.7 °C 29.92in /  1013.1hPa Calm     96% 0.00in /  0mm 23 W/m2
07:39 59.8 °F /  15.4 °C 58.6 °F /  14.8 °C 29.92in /  1013.1hPa Calm     96% 0.00in /  0mm 25 W/m2
07:44 59.9 °F /  15.5 °C 58.8 °F /  14.9 °C 29.92in /  1013.1hPa Calm     96% 0.00in /  0mm 28 W/m2
07:49 60.1 °F /  15.6 °C 58.9 °F /  14.9 °C 29.92in /  1013.1hPa ENE 0.3mph /  0.5km/h 5mph /  8km/h 96% 0.00in /  0mm 35 W/m2
07:54 60.3 °F /  15.7 °C 59.2 °F /  15.1 °C 29.92in /  1013.1hPa Calm   5mph /  8km/h 96% 0.00in /  0mm 49 W/m2
07:59 60.5 °F /  15.8 °C 59.3 °F /  15.2 °C 29.92in /  1013.1hPa Calm   5mph /  8km/h 96% 0.00in /  0mm 42 W/m2
08:09 60.9 °F /  16.1 °C 59.7 °F /  15.4 °C 29.93in /  1013.4hPa ENE 0.4mph /  0.6km/h 5mph /  8km/h 96% 0.00in /  0mm 69 W/m2
08:14 61.1 °F /  16.2 °C 59.9 °F /  15.5 °C 29.93in /  1013.4hPa ENE 0.8mph /  1.3km/h 5mph /  8km/h 96% 0.00in /  0mm 72 W/m2
08:19 61.2 °F /  16.2 °C 60 °F /  15.6 °C 29.92in /  1013.1hPa ENE 0.6mph /  1km/h 6mph /  9.7km/h 96% 0.00in /  0mm 84 W/m2
08:24 61.4 °F /  16.3 °C 60.3 °F /  15.7 °C 29.92in /  1013.1hPa ENE 0.8mph /  1.3km/h 6mph /  9.7km/h 96% 0.00in /  0mm 98 W/m2
08:29 61.6 °F /  16.4 °C 60.3 °F /  15.7 °C 29.92in /  1013.1hPa Calm   6mph /  9.7km/h 95.4% 0.00in /  0mm 90 W/m2
08:34 61.9 °F /  16.6 °C 60.7 °F /  15.9 °C 29.92in /  1013.1hPa ENE 0.1mph /  0.2km/h 6mph /  9.7km/h 95.6% 0.00in /  0mm 367 W/m2
08:39 62.4 °F /  16.9 °C 61.1 °F /  16.2 °C 29.92in /  1013.1hPa ENE 0.7mph /  1.1km/h 5mph /  8km/h 95.5% 0.00in /  0mm 371 W/m2
08:44 62.9 °F /  17.2 °C 61.4 °F /  16.3 °C 29.92in /  1013.1hPa Calm   5mph /  8km/h 95% 0.00in /  0mm 394 W/m2
08:49 63.6 °F /  17.6 °C 62.1 °F /  16.7 °C 29.92in /  1013.1hPa ENE 0.1mph /  0.2km/h 5mph /  8km/h 94.9% 0.00in /  0mm 417 W/m2
08:54 64.4 °F /  18 °C 62.5 °F /  16.9 °C 29.92in /  1013.1hPa Calm   5mph /  8km/h 93.8% 0.00in /  0mm 427 W/m2
08:59 65.1 °F /  18.4 °C 62.7 °F /  17.1 °C 29.92in /  1013.1hPa ENE 0.5mph /  0.8km/h 5mph /  8km/h 91.8% 0.00in /  0mm 480 W/m2
09:04 65.8 °F /  18.8 °C 62.5 °F /  16.9 °C 29.91in /  1012.8hPa ENE 0.4mph /  0.6km/h 5mph /  8km/h 88.8% 0.00in /  0mm 527 W/m2
09:09 66.8 °F /  19.3 °C 62.9 °F /  17.2 °C 29.91in /  1012.8hPa ENE 0.2mph /  0.3km/h 4mph /  6.4km/h 87.2% 0.00in /  0mm 555 W/m2
09:14 67.8 °F /  19.9 °C 63.1 °F /  17.3 °C 29.91in /  1012.8hPa NNW 0.6mph /  1km/h 5mph /  8km/h 85.1% 0.00in /  0mm 550 W/m2
09:19 68.7 °F /  20.4 °C 63.2 °F /  17.3 °C 29.91in /  1012.8hPa ESE 0.1mph /  0.2km/h 5mph /  8km/h 82.7% 0.00in /  0mm 552 W/m2
09:24 69.4 °F /  20.8 °C 63.2 °F /  17.3 °C 29.91in /  1012.8hPa NNW 0.2mph /  0.3km/h 5mph /  8km/h 80.7% 0.00in /  0mm 552 W/m2
09:29 70.1 °F /  21.2 °C 63.6 °F /  17.6 °C 29.92in /  1013.1hPa NNW 0.7mph /  1.1km/h 6mph /  9.7km/h 80% 0.00in /  0mm 613 W/m2
09:34 70.6 °F /  21.4 °C 63.5 °F /  17.5 °C 29.91in /  1012.8hPa ENE 0.2mph /  0.3km/h 6mph /  9.7km/h 78.2% 0.00in /  0mm 649 W/m2
09:39 70.9 °F /  21.6 °C 63.6 °F /  17.6 °C 29.91in /  1012.8hPa NE 1.4mph /  2.3km/h 6mph /  9.7km/h 77.7% 0.00in /  0mm 677 W/m2
09:44 71.1 °F /  21.7 °C 63 °F /  17.2 °C 29.91in /  1012.8hPa NE 1.5mph /  2.4km/h 9mph /  14.5km/h 75.6% 0.00in /  0mm 722 W/m2
09:49 71.3 °F /  21.8 °C 63 °F /  17.2 °C 29.92in /  1013.1hPa NE 2.3mph /  3.7km/h 9mph /  14.5km/h 75.1% 0.00in /  0mm 729 W/m2
09:54 71.2 °F /  21.8 °C 62.8 °F /  17.1 °C 29.92in /  1013.1hPa East 1mph /  1.6km/h 9mph /  14.5km/h 74.7% 0.00in /  0mm 181 W/m2
09:59 71.2 °F /  21.8 °C 62.6 °F /  17 °C 29.91in /  1012.8hPa East 0.3mph /  0.5km/h 9mph /  14.5km/h 74.5% 0.00in /  0mm 181 W/m2
10:04 70.9 °F /  21.6 °C 62.4 °F /  16.9 °C 29.91in /  1012.8hPa ENE 0.7mph /  1.1km/h 9mph /  14.5km/h 74.5% 0.00in /  0mm 768 W/m2
10:09 70.7 °F /  21.5 °C 62.5 °F /  16.9 °C 29.91in /  1012.8hPa NE 0.6mph /  1km/h 5mph /  8km/h 75.2% 0.00in /  0mm 218 W/m2
10:14 70.7 °F /  21.5 °C 62.8 °F /  17.1 °C 29.91in /  1012.8hPa NNE 0.2mph /  0.3km/h 5mph /  8km/h 76.1% 0.00in /  0mm 800 W/m2
10:18 70.7 °F /  21.5 °C 62.9 °F /  17.2 °C 29.91in /  1012.8hPa Calm   5mph /  8km/h 76.2% 0.00in /  0mm 269 W/m2
10:24 70.7 °F /  21.5 °C 62.8 °F /  17.1 °C 29.91in /  1012.8hPa NNW 0.7mph /  1.1km/h 5mph /  8km/h 76% 0.00in /  0mm 772 W/m2
10:29 70.8 °F /  21.6 °C 62.9 °F /  17.2 °C 29.91in /  1012.8hPa Calm   5mph /  8km/h 76.1% 0.00in /  0mm 250 W/m2
10:34 70.7 °F /  21.5 °C 62.7 °F /  17.1 °C 29.91in /  1012.8hPa Calm   5mph /  8km/h 75.6% 0.00in /  0mm 232 W/m2
10:39 70.8 °F /  21.6 °C 62.8 °F /  17.1 °C 29.91in /  1012.8hPa Calm     75.9% 0.00in /  0mm 232 W/m2
10:44 71.2 °F /  21.8 °C 63.4 °F /  17.4 °C 29.91in /  1012.8hPa East 0.6mph /  1km/h 6mph /  9.7km/h 76.5% 0.00in /  0mm 786 W/m2
10:49 71.6 °F /  22 °C 63.5 °F /  17.5 °C 29.91in /  1012.8hPa Calm   6mph /  9.7km/h 75.6% 0.00in /  0mm 768 W/m2
10:54 72.3 °F /  22.4 °C 63.5 °F /  17.5 °C 29.91in /  1012.8hPa ENE 1.4mph /  2.3km/h 10mph /  16.1km/h 73.7% 0.00in /  0mm 819 W/m2
10:59 72.6 °F /  22.6 °C 62.7 °F /  17.1 °C 29.91in /  1012.8hPa ENE 2.9mph /  4.7km/h 10mph /  16.1km/h 71.2% 0.00in /  0mm 831 W/m2
11:04 72.6 °F /  22.6 °C 62.4 °F /  16.9 °C 29.91in /  1012.8hPa East 3.1mph /  5km/h 12mph /  19.3km/h 70.2% 0.00in /  0mm 874 W/m2
11:09 72.7 °F /  22.6 °C 61.9 °F /  16.6 °C 29.91in /  1012.8hPa ENE 3.2mph /  5.1km/h 12mph /  19.3km/h 68.8% 0.00in /  0mm 926 W/m2
11:14 72.8 °F /  22.7 °C 62.1 °F /  16.7 °C 29.90in /  1012.4hPa NE 1.2mph /  1.9km/h 12mph /  19.3km/h 69.2% 0.00in /  0mm 974 W/m2
11:19 73.5 °F /  23.1 °C 64.3 °F /  17.9 °C 29.90in /  1012.4hPa NNW 0.5mph /  0.8km/h 12mph /  19.3km/h 72.9% 0.00in /  0mm 974 W/m2
11:24 74.1 °F /  23.4 °C 63.7 °F /  17.6 °C 29.90in /  1012.4hPa NW 1.3mph /  2.1km/h 12mph /  19.3km/h 70% 0.00in /  0mm 849 W/m2
11:29 74.2 °F /  23.4 °C 62.9 °F /  17.2 °C 29.90in /  1012.4hPa ESE 0.3mph /  0.5km/h 12mph /  19.3km/h 67.7% 0.00in /  0mm 425 W/m2
11:34 73.6 °F /  23.1 °C 62 °F /  16.7 °C 29.90in /  1012.4hPa NE 2mph /  3.2km/h 12mph /  19.3km/h 67.1% 0.00in /  0mm 425 W/m2
11:39 72.9 °F /  22.7 °C 61 °F /  16.1 °C 29.90in /  1012.4hPa ENE 1.8mph /  2.9km/h 10mph /  16.1km/h 66.2% 0.00in /  0mm 872 W/m2
11:44 72.9 °F /  22.7 °C 62.1 °F /  16.7 °C 29.90in /  1012.4hPa NNE 0.2mph /  0.3km/h 10mph /  16.1km/h 68.9% 0.00in /  0mm 911 W/m2
11:49 73.3 °F /  22.9 °C 62.5 °F /  16.9 °C 29.90in /  1012.4hPa ESE 1.7mph /  2.7km/h 10mph /  16.1km/h 69% 0.00in /  0mm 875 W/m2
11:54 73.3 °F /  22.9 °C 61.7 °F /  16.5 °C 29.90in /  1012.4hPa ENE 1.3mph /  2.1km/h 10mph /  16.1km/h 67.1% 0.00in /  0mm 805 W/m2
11:59 73.1 °F /  22.8 °C 61.4 °F /  16.3 °C 29.90in /  1012.4hPa ENE 1.9mph /  3.1km/h 10mph /  16.1km/h 66.8% 0.00in /  0mm 98 W/m2
12:00 73 °F /  22.8 °C 61.8 °F /  16.6 °C 29.90in /  1012.4hPa Calm   10mph /  16.1km/h 68% 0.00in /  0mm 98 W/m2
12:09 73.1 °F /  22.8 °C 61.9 °F /  16.6 °C 29.90in /  1012.4hPa North 0.6mph /  1km/h 5mph /  8km/h 67.9% 0.00in /  0mm 79 W/m2
12:14 73.2 °F /  22.9 °C 61.8 °F /  16.6 °C 29.90in /  1012.4hPa NW 0.3mph /  0.5km/h 5mph /  8km/h 67.6% 0.00in /  0mm 74 W/m2
12:19 73.1 °F /  22.8 °C 62 °F /  16.7 °C 29.90in /  1012.4hPa North 0.8mph /  1.3km/h 6mph /  9.7km/h 68.2% 0.00in /  0mm 167 W/m2
12:24 73.1 °F /  22.8 °C 61.7 °F /  16.5 °C 29.90in /  1012.4hPa NE 1.8mph /  2.9km/h 7mph /  11.3km/h 67.5% 0.00in /  0mm 155 W/m2
12:29 73.2 °F /  22.9 °C 61.5 °F /  16.4 °C 29.89in /  1012.1hPa North 0.5mph /  0.8km/h 7mph /  11.3km/h 66.7% 0.00in /  0mm 70 W/m2
12:34 73.3 °F /  22.9 °C 61.8 °F /  16.6 °C 29.89in /  1012.1hPa NNW 0.4mph /  0.6km/h 7mph /  11.3km/h 67.2% 0.00in /  0mm 84 W/m2
12:39 73.5 °F /  23.1 °C 61.2 °F /  16.2 °C 29.89in /  1012.1hPa NE 2.2mph /  3.5km/h 7mph /  11.3km/h 65.6% 0.00in /  0mm 84 W/m2
12:44 73.4 °F /  23 °C 61.1 °F /  16.2 °C 29.90in /  1012.4hPa NE 0.6mph /  1km/h 7mph /  11.3km/h 65.3% 0.00in /  0mm 88 W/m2
12:49 73.5 °F /  23.1 °C 61.5 °F /  16.4 °C 29.90in /  1012.4hPa NW 3mph /  4.8km/h 10mph /  16.1km/h 66.1% 0.00in /  0mm 135 W/m2
12:54 73.6 °F /  23.1 °C 61.3 °F /  16.3 °C 29.89in /  1012.1hPa Calm   10mph /  16.1km/h 65.3% 0.00in /  0mm 206 W/m2
12:59 73.7 °F /  23.2 °C 61.3 °F /  16.3 °C 29.89in /  1012.1hPa NNW 1mph /  1.6km/h 10mph /  16.1km/h 65.1% 0.00in /  0mm 128 W/m2
13:04 73.8 °F /  23.2 °C 61.1 °F /  16.2 °C 29.89in /  1012.1hPa NNW 1mph /  1.6km/h 10mph /  16.1km/h 64.6% 0.00in /  0mm 109 W/m2
13:09 73.9 °F /  23.3 °C 61.4 °F /  16.3 °C 29.89in /  1012.1hPa NW 0.7mph /  1.1km/h 8mph /  12.9km/h 65% 0.00in /  0mm 62 W/m2
13:14 74 °F /  23.3 °C 61.1 °F /  16.2 °C 29.88in /  1011.7hPa NNE 0.7mph /  1.1km/h 8mph /  12.9km/h 64.1% 0.00in /  0mm 65 W/m2
13:19 73.9 °F /  23.3 °C 60.1 °F /  15.6 °C 29.88in /  1011.7hPa NNW 2.2mph /  3.5km/h 12mph /  19.3km/h 62.2% 0.00in /  0mm 62 W/m2
13:24 73.9 °F /  23.3 °C 61.1 °F /  16.2 °C 29.88in /  1011.7hPa NW 1.6mph /  2.6km/h 12mph /  19.3km/h 64.3% 0.00in /  0mm 56 W/m2
13:29 74.1 °F /  23.4 °C 60.8 °F /  16 °C 29.89in /  1012.1hPa NNW 0.8mph /  1.3km/h 12mph /  19.3km/h 63.1% 0.00in /  0mm 72 W/m2
13:34 74.3 °F /  23.5 °C 60.7 °F /  15.9 °C 29.89in /  1012.1hPa NE 1mph /  1.6km/h 12mph /  19.3km/h 62.5% 0.00in /  0mm 141 W/m2
13:39 74.4 °F /  23.6 °C 60.1 °F /  15.6 °C 29.88in /  1011.7hPa ENE 1.1mph /  1.8km/h 5mph /  8km/h 61% 0.00in /  0mm 105 W/m2
13:44 74.5 °F /  23.6 °C 60.3 °F /  15.7 °C 29.88in /  1011.7hPa North 0.7mph /  1.1km/h 5mph /  8km/h 61.3% 0.00in /  0mm 69 W/m2
13:49 74.5 °F /  23.6 °C 60.8 °F /  16 °C 29.88in /  1011.7hPa NNE 0.2mph /  0.3km/h 5mph /  8km/h 62.3% 0.00in /  0mm 67 W/m2
13:54 74.7 °F /  23.7 °C 60.8 °F /  16 °C 29.88in /  1011.7hPa NE 1.6mph /  2.6km/h 7mph /  11.3km/h 62.1% 0.00in /  0mm 86 W/m2
13:59 74.8 °F /  23.8 °C 60.5 °F /  15.8 °C 29.88in /  1011.7hPa NNE 0.6mph /  1km/h 8mph /  12.9km/h 61.2% 0.00in /  0mm 62 W/m2
14:04 74.8 °F /  23.8 °C 60.5 °F /  15.8 °C 29.88in /  1011.7hPa NW 0.4mph /  0.6km/h 8mph /  12.9km/h 61% 0.00in /  0mm 130 W/m2
14:09 74.9 °F /  23.8 °C 60 °F /  15.6 °C 29.88in /  1011.7hPa ENE 0.3mph /  0.5km/h 5mph /  8km/h 59.8% 0.00in /  0mm 54 W/m2
14:14 75.1 °F /  23.9 °C 60.4 °F /  15.8 °C 29.88in /  1011.7hPa NW 0.8mph /  1.3km/h 10mph /  16.1km/h 60.4% 0.00in /  0mm 202 W/m2
14:19 75.3 °F /  24.1 °C 60.5 °F /  15.8 °C 29.88in /  1011.7hPa East 1.2mph /  1.9km/h 10mph /  16.1km/h 60% 0.00in /  0mm 728 W/m2
14:24 75.6 °F /  24.2 °C 60.1 °F /  15.6 °C 29.88in /  1011.7hPa ENE 0.2mph /  0.3km/h 10mph /  16.1km/h 58.7% 0.00in /  0mm 803 W/m2
14:29 75.8 °F /  24.3 °C 60 °F /  15.6 °C 29.88in /  1011.7hPa NNW 0.4mph /  0.6km/h 10mph /  16.1km/h 58% 0.00in /  0mm 807 W/m2
14:34 76.2 °F /  24.6 °C 59.6 °F /  15.3 °C 29.88in /  1011.7hPa NW 1.2mph /  1.9km/h 10mph /  16.1km/h 56.4% 0.00in /  0mm 798 W/m2
14:39 76.5 °F /  24.7 °C 59.7 °F /  15.4 °C 29.87in /  1011.4hPa NW 0.8mph /  1.3km/h 7mph /  11.3km/h 56% 0.00in /  0mm 793 W/m2
14:44 76.7 °F /  24.8 °C 60 °F /  15.6 °C 29.87in /  1011.4hPa WNW 0.4mph /  0.6km/h 7mph /  11.3km/h 56.2% 0.00in /  0mm 780 W/m2
14:49 77.2 °F /  25.1 °C 60 °F /  15.6 °C 29.87in /  1011.4hPa ENE 1.5mph /  2.4km/h 7mph /  11.3km/h 55.5% 0.00in /  0mm 772 W/m2
14:54 77.4 °F /  25.2 °C 58.6 °F /  14.8 °C 29.87in /  1011.4hPa NE 1mph /  1.6km/h 7mph /  11.3km/h 52.4% 0.00in /  0mm 761 W/m2
14:59 77.5 °F /  25.3 °C 59.2 °F /  15.1 °C 29.87in /  1011.4hPa NNE 1.9mph /  3.1km/h 7mph /  11.3km/h 53.2% 0.00in /  0mm 752 W/m2
15:04 77.6 °F /  25.3 °C 58.3 °F /  14.6 °C 29.87in /  1011.4hPa East 1.4mph /  2.3km/h 7mph /  11.3km/h 51.5% 0.00in /  0mm 744 W/m2
15:09 77.7 °F /  25.4 °C 59 °F /  15 °C 29.87in /  1011.4hPa ENE 1.8mph /  2.9km/h 7mph /  11.3km/h 52.6% 0.00in /  0mm 729 W/m2
15:14 77.8 °F /  25.4 °C 58.2 °F /  14.6 °C 29.87in /  1011.4hPa East 1.4mph /  2.3km/h 7mph /  11.3km/h 50.8% 0.00in /  0mm 726 W/m2
15:19 77.9 °F /  25.5 °C 58.8 °F /  14.9 °C 29.87in /  1011.4hPa East 0.5mph /  0.8km/h 7mph /  11.3km/h 51.8% 0.00in /  0mm 712 W/m2
15:24 78 °F /  25.6 °C 59.3 °F /  15.2 °C 29.87in /  1011.4hPa NE 1.8mph /  2.9km/h 7mph /  11.3km/h 52.6% 0.00in /  0mm 698 W/m2
15:29 78.2 °F /  25.7 °C 59.6 °F /  15.3 °C 29.87in /  1011.4hPa NW 1.6mph /  2.6km/h 7mph /  11.3km/h 52.8% 0.00in /  0mm 687 W/m2
15:34 78.4 °F /  25.8 °C 59.8 °F /  15.4 °C 29.86in /  1011.1hPa North 2.2mph /  3.5km/h 7mph /  11.3km/h 52.9% 0.00in /  0mm 671 W/m2
15:39 78.6 °F /  25.9 °C 59.6 °F /  15.3 °C 29.86in /  1011.1hPa NE 2.8mph /  4.5km/h 7mph /  11.3km/h 52.1% 0.00in /  0mm 661 W/m2
15:44 78.7 °F /  25.9 °C 59.5 °F /  15.3 °C 29.86in /  1011.1hPa NE 1.1mph /  1.8km/h 7mph /  11.3km/h 51.7% 0.00in /  0mm 645 W/m2
15:49 78.8 °F /  26 °C 59.4 °F /  15.2 °C 29.86in /  1011.1hPa NNE 0.9mph /  1.4km/h 7mph /  11.3km/h 51.5% 0.00in /  0mm 629 W/m2
15:54 78.8 °F /  26 °C 59.4 °F /  15.2 °C 29.86in /  1011.1hPa NE 1.8mph /  2.9km/h 9mph /  14.5km/h 51.3% 0.00in /  0mm 613 W/m2
15:59 78.6 °F /  25.9 °C 58.9 °F /  14.9 °C 29.86in /  1011.1hPa NE 2.7mph /  4.3km/h 9mph /  14.5km/h 50.8% 0.00in /  0mm 606 W/m2
16:00 78.4 °F /  25.8 °C 58.8 °F /  14.9 °C 29.85in /  1010.7hPa East 2mph /  3.2km/h 9mph /  14.5km/h 51% 0.00in /  0mm 67 W/m2
16:09 77.6 °F /  25.3 °C 58.5 °F /  14.7 °C 29.85in /  1010.7hPa NE 0.7mph /  1.1km/h 5mph /  8km/h 51.7% 0.00in /  0mm 62 W/m2
16:14 77.4 °F /  25.2 °C 58.3 °F /  14.6 °C 29.85in /  1010.7hPa ENE 0.6mph /  1km/h 6mph /  9.7km/h 51.9% 0.00in /  0mm 49 W/m2
16:19 77 °F /  25 °C 58.6 °F /  14.8 °C 29.85in /  1010.7hPa ENE 2.6mph /  4.2km/h 8mph /  12.9km/h 53% 0.00in /  0mm 49 W/m2
16:24 76.8 °F /  24.9 °C 59.1 °F /  15.1 °C 29.85in /  1010.7hPa NE 0.2mph /  0.3km/h 8mph /  12.9km/h 54.4% 0.00in /  0mm 47 W/m2
16:29 76.7 °F /  24.8 °C 59 °F /  15 °C 29.85in /  1010.7hPa ENE 1mph /  1.6km/h 8mph /  12.9km/h 54.4% 0.00in /  0mm 49 W/m2
16:34 76.6 °F /  24.8 °C 58.8 °F /  14.9 °C 29.85in /  1010.7hPa ENE 1.2mph /  1.9km/h 8mph /  12.9km/h 54.1% 0.00in /  0mm 49 W/m2
16:39 76.5 °F /  24.7 °C 58.6 °F /  14.8 °C 29.85in /  1010.7hPa East 2.7mph /  4.3km/h 6mph /  9.7km/h 53.9% 0.00in /  0mm 47 W/m2
16:44 76.4 °F /  24.7 °C 58.5 °F /  14.7 °C 29.85in /  1010.7hPa East 2.2mph /  3.5km/h 7mph /  11.3km/h 54% 0.00in /  0mm 44 W/m2
16:49 76.3 °F /  24.6 °C 59.1 °F /  15.1 °C 29.85in /  1010.7hPa East 0.8mph /  1.3km/h 7mph /  11.3km/h 55.4% 0.00in /  0mm 42 W/m2
16:54 76.2 °F /  24.6 °C 59.1 °F /  15.1 °C 29.84in /  1010.4hPa NNE 0.2mph /  0.3km/h 7mph /  11.3km/h 55.4% 0.00in /  0mm 42 W/m2
16:59 76.2 °F /  24.6 °C 59.3 °F /  15.2 °C 29.84in /  1010.4hPa NE 0.8mph /  1.3km/h 7mph /  11.3km/h 55.8% 0.00in /  0mm 49 W/m2
17:04 76.2 °F /  24.6 °C 59.3 °F /  15.2 °C 29.84in /  1010.4hPa NE 1.1mph /  1.8km/h 7mph /  11.3km/h 56% 0.00in /  0mm 62 W/m2
17:09 76.1 °F /  24.5 °C 59.3 °F /  15.2 °C 29.84in /  1010.4hPa NE 1.4mph /  2.3km/h 5mph /  8km/h 56.1% 0.00in /  0mm 69 W/m2
17:14 76.1 °F /  24.5 °C 59.6 °F /  15.3 °C 29.84in /  1010.4hPa NE 1.3mph /  2.1km/h 6mph /  9.7km/h 56.7% 0.00in /  0mm 69 W/m2
17:19 76.1 °F /  24.5 °C 59 °F /  15 °C 29.84in /  1010.4hPa ENE 1.5mph /  2.4km/h 6mph /  9.7km/h 55.5% 0.00in /  0mm 54 W/m2
17:24 76.1 °F /  24.5 °C 59.3 °F /  15.2 °C 29.84in /  1010.4hPa ENE 2.7mph /  4.3km/h 7mph /  11.3km/h 56.1% 0.00in /  0mm 42 W/m2
17:29 76 °F /  24.4 °C 59 °F /  15 °C 29.85in /  1010.7hPa East 2mph /  3.2km/h 7mph /  11.3km/h 55.6% 0.00in /  0mm 40 W/m2
17:34 75.9 °F /  24.4 °C 59.1 °F /  15.1 °C 29.85in /  1010.7hPa ENE 0.9mph /  1.4km/h 7mph /  11.3km/h 56% 0.00in /  0mm 40 W/m2
17:39 75.9 °F /  24.4 °C 59 °F /  15 °C 29.85in /  1010.7hPa ENE 0.5mph /  0.8km/h 4mph /  6.4km/h 55.9% 0.00in /  0mm 35 W/m2
17:44 75.8 °F /  24.3 °C 58.3 °F /  14.6 °C 29.85in /  1010.7hPa NE 3.2mph /  5.1km/h 10mph /  16.1km/h 54.6% 0.00in /  0mm 33 W/m2
17:49 75.6 °F /  24.2 °C 57.9 °F /  14.4 °C 29.85in /  1010.7hPa NE 2.9mph /  4.7km/h 10mph /  16.1km/h 54.2% 0.00in /  0mm 32 W/m2
17:54 75.4 °F /  24.1 °C 58 °F /  14.4 °C 29.85in /  1010.7hPa NE 3.4mph /  5.5km/h 10mph /  16.1km/h 54.7% 0.00in /  0mm 32 W/m2
17:59 75.3 °F /  24.1 °C 57.2 °F /  14 °C 29.85in /  1010.7hPa ENE 0.2mph /  0.3km/h 10mph /  16.1km/h 53.5% 0.00in /  0mm 30 W/m2
18:04 75.2 °F /  24 °C 56.6 °F /  13.7 °C 29.85in /  1010.7hPa ENE 0.1mph /  0.2km/h 10mph /  16.1km/h 52.5% 0.00in /  0mm 28 W/m2
18:09 75.1 °F /  23.9 °C 56.9 °F /  13.8 °C 29.85in /  1010.7hPa ENE 0.7mph /  1.1km/h 5mph /  8km/h 53.1% 0.00in /  0mm 28 W/m2
18:14 75 °F /  23.9 °C 56.7 °F /  13.7 °C 29.86in /  1011.1hPa NE 0.3mph /  0.5km/h 5mph /  8km/h 53% 0.00in /  0mm 26 W/m2
18:19 74.8 °F /  23.8 °C 55 °F /  12.8 °C 29.86in /  1011.1hPa NE 0.8mph /  1.3km/h 5mph /  8km/h 50.2% 0.00in /  0mm 25 W/m2
18:24 74.6 °F /  23.7 °C 54.3 °F /  12.4 °C 29.86in /  1011.1hPa Calm   5mph /  8km/h 49.1% 0.00in /  0mm 23 W/m2
18:29 74.5 °F /  23.6 °C 53.7 °F /  12.1 °C 29.86in /  1011.1hPa NE 0.2mph /  0.3km/h 5mph /  8km/h 48.3% 0.00in /  0mm 23 W/m2
18:34 74.4 °F /  23.6 °C 54.1 °F /  12.3 °C 29.86in /  1011.1hPa ENE 0.1mph /  0.2km/h 5mph /  8km/h 49.2% 0.00in /  0mm 21 W/m2
18:39 74.3 °F /  23.5 °C 54.2 °F /  12.3 °C 29.86in /  1011.1hPa ENE 0.9mph /  1.4km/h 4mph /  6.4km/h 49.5% 0.00in /  0mm 18 W/m2
18:44 74.2 °F /  23.4 °C 54.2 °F /  12.3 °C 29.86in /  1011.1hPa Calm   4mph /  6.4km/h 49.7% 0.00in /  0mm 16 W/m2
18:49 74 °F /  23.3 °C 53.7 °F /  12.1 °C 29.86in /  1011.1hPa Calm   4mph /  6.4km/h 49.1% 0.00in /  0mm 14 W/m2
18:54 73.8 °F /  23.2 °C 53.7 °F /  12.1 °C 29.86in /  1011.1hPa ENE 0.1mph /  0.2km/h 4mph /  6.4km/h 49.5% 0.00in /  0mm 11 W/m2
18:59 73.5 °F /  23.1 °C 53.8 °F /  12.1 °C 29.86in /  1011.1hPa Calm   4mph /  6.4km/h 50% 0.00in /  0mm 9 W/m2
19:04 73.3 °F /  22.9 °C 53.5 °F /  11.9 °C 29.86in /  1011.1hPa Calm   4mph /  6.4km/h 50% 0.00in /  0mm 7 W/m2
19:09 73 °F /  22.8 °C 53.3 °F /  11.8 °C 29.86in /  1011.1hPa Calm     50% 0.00in /  0mm 0 W/m2
19:14 72.8 °F /  22.7 °C 53.1 °F /  11.7 °C 29.86in /  1011.1hPa Calm     50% 0.00in /  0mm 0 W/m2
19:19 72.5 °F /  22.5 °C 52.9 °F /  11.6 °C 29.86in /  1011.1hPa Calm     50.1% 0.00in /  0mm 0 W/m2
19:24 72.2 °F /  22.3 °C 53.1 °F /  11.7 °C 29.87in /  1011.4hPa Calm     51% 0.00in /  0mm 0 W/m2
19:29 71.9 °F /  22.2 °C 52.9 °F /  11.6 °C 29.87in /  1011.4hPa Calm     51.2% 0.00in /  0mm 0 W/m2
19:34 71.6 °F /  22 °C 53.4 °F /  11.9 °C 29.87in /  1011.4hPa Calm     52.8% 0.00in /  0mm 0 W/m2
19:39 71.2 °F /  21.8 °C 54.5 °F /  12.5 °C 29.87in /  1011.4hPa Calm     55.7% 0.00in /  0mm 0 W/m2
19:44 70.8 °F /  21.6 °C 55.1 °F /  12.8 °C 29.88in /  1011.7hPa Calm     57.4% 0.00in /  0mm 0 W/m2
19:49 70.5 °F /  21.4 °C 55.2 °F /  12.9 °C 29.88in /  1011.7hPa Calm     58.4% 0.00in /  0mm 0 W/m2
19:54 70.1 °F /  21.2 °C 55.1 °F /  12.8 °C 29.88in /  1011.7hPa Calm     59% 0.00in /  0mm 0 W/m2
19:59 69.6 °F /  20.9 °C 55.1 °F /  12.8 °C 29.88in /  1011.7hPa Calm     59.9% 0.00in /  0mm 0 W/m2
20:00 69.5 °F /  20.8 °C 55.5 °F /  13.1 °C 29.88in /  1011.7hPa Calm     61% 0.00in /  0mm 0 W/m2
20:09 69 °F /  20.6 °C 55.4 °F /  13 °C 29.88in /  1011.7hPa Calm     62% 0.00in /  0mm 0 W/m2
20:14 68.7 °F /  20.4 °C 55.6 °F /  13.1 °C 29.88in /  1011.7hPa Calm     63.1% 0.00in /  0mm 0 W/m2
20:19 68.4 °F /  20.2 °C 55.9 °F /  13.3 °C 29.89in /  1012.1hPa Calm     64.5% 0.00in /  0mm 0 W/m2
20:24 68.1 °F /  20.1 °C 56.1 °F /  13.4 °C 29.89in /  1012.1hPa Calm     65.4% 0.00in /  0mm 0 W/m2
20:29 67.8 °F /  19.9 °C 56 °F /  13.3 °C 29.89in /  1012.1hPa Calm     66% 0.00in /  0mm 0 W/m2
20:34 67.5 °F /  19.7 °C 55.9 °F /  13.3 °C 29.89in /  1012.1hPa Calm     66.4% 0.00in /  0mm 0 W/m2
20:39 67.3 °F /  19.6 °C 55.9 °F /  13.3 °C 29.89in /  1012.1hPa Calm     67% 0.00in /  0mm 0 W/m2
20:44 67 °F /  19.4 °C 56 °F /  13.3 °C 29.89in /  1012.1hPa Calm     67.8% 0.00in /  0mm 0 W/m2
20:49 66.8 °F /  19.3 °C 55.9 °F /  13.3 °C 29.89in /  1012.1hPa Calm     68.1% 0.00in /  0mm 0 W/m2
20:54 66.5 °F /  19.2 °C 56 °F /  13.3 °C 29.89in /  1012.1hPa Calm     69% 0.00in /  0mm 0 W/m2
20:59 66.3 °F /  19.1 °C 56.2 °F /  13.4 °C 29.89in /  1012.1hPa Calm     69.9% 0.00in /  0mm 0 W/m2
21:04 66 °F /  18.9 °C 56 °F /  13.3 °C 29.89in /  1012.1hPa Calm     70% 0.00in /  0mm 0 W/m2
21:09 65.8 °F /  18.8 °C 56.1 °F /  13.4 °C 29.89in /  1012.1hPa Calm     70.9% 0.00in /  0mm 0 W/m2
21:14 65.6 °F /  18.7 °C 56.2 °F /  13.4 °C 29.90in /  1012.4hPa Calm     71.5% 0.00in /  0mm 0 W/m2
21:19 65.4 °F /  18.6 °C 56 °F /  13.3 °C 29.90in /  1012.4hPa Calm     71.7% 0.00in /  0mm 0 W/m2
21:24 65.1 °F /  18.4 °C 55.7 °F /  13.2 °C 29.90in /  1012.4hPa Calm     71.5% 0.00in /  0mm 0 W/m2
21:29 64.9 °F /  18.3 °C 55 °F /  12.8 °C 29.90in /  1012.4hPa Calm     70.4% 0.00in /  0mm 0 W/m2
21:34 64.7 °F /  18.2 °C 55 °F /  12.8 °C 29.91in /  1012.8hPa Calm     70.8% 0.00in /  0mm 0 W/m2
21:39 64.5 °F /  18.1 °C 54.9 °F /  12.7 °C 29.91in /  1012.8hPa Calm     71% 0.00in /  0mm 0 W/m2
21:44 64.3 °F /  17.9 °C 55.1 °F /  12.8 °C 29.91in /  1012.8hPa Calm     71.9% 0.00in /  0mm 0 W/m2
21:49 64.1 °F /  17.8 °C 55.1 °F /  12.8 °C 29.91in /  1012.8hPa Calm     72.5% 0.00in /  0mm 0 W/m2
21:54 63.9 °F /  17.7 °C 55.2 °F /  12.9 °C 29.91in /  1012.8hPa Calm     73.3% 0.00in /  0mm 0 W/m2
21:59 63.8 °F /  17.7 °C 55.4 °F /  13 °C 29.91in /  1012.8hPa Calm     74.2% 0.00in /  0mm 0 W/m2
22:04 63.6 °F /  17.6 °C 55.5 °F /  13.1 °C 29.91in /  1012.8hPa Calm     75% 0.00in /  0mm 0 W/m2
22:09 63.4 °F /  17.4 °C 55.7 °F /  13.2 °C 29.91in /  1012.8hPa Calm     75.8% 0.00in /  0mm 0 W/m2
22:14 63.3 °F /  17.4 °C 55.7 °F /  13.2 °C 29.91in /  1012.8hPa Calm     76% 0.00in /  0mm 0 W/m2
22:19 63.2 °F /  17.3 °C 55.9 °F /  13.3 °C 29.91in /  1012.8hPa Calm     77% 0.00in /  0mm 0 W/m2
22:24 63 °F /  17.2 °C 55.7 °F /  13.2 °C 29.91in /  1012.8hPa Calm     77% 0.00in /  0mm 0 W/m2
22:29 62.8 °F /  17.1 °C 55.4 °F /  13 °C 29.91in /  1012.8hPa Calm     76.5% 0.00in /  0mm 0 W/m2
22:34 62.7 °F /  17.1 °C 55 °F /  12.8 °C 29.92in /  1013.1hPa Calm     76% 0.00in /  0mm 0 W/m2
22:39 62.6 °F /  17 °C 54.9 °F /  12.7 °C 29.92in /  1013.1hPa Calm     76% 0.00in /  0mm 0 W/m2
22:44 62.5 °F /  16.9 °C 55.1 °F /  12.8 °C 29.92in /  1013.1hPa Calm     76.7% 0.00in /  0mm 0 W/m2
22:49 62.3 °F /  16.8 °C 55 °F /  12.8 °C 29.92in /  1013.1hPa Calm     77% 0.00in /  0mm 0 W/m2
22:54 62.3 °F /  16.8 °C 55.1 °F /  12.8 °C 29.92in /  1013.1hPa Calm     77.3% 0.00in /  0mm 0 W/m2
22:59 62.2 °F /  16.8 °C 55.4 °F /  13 °C 29.92in /  1013.1hPa Calm     78.3% 0.00in /  0mm 0 W/m2
23:04 62.1 °F /  16.7 °C 55.6 °F /  13.1 °C 29.92in /  1013.1hPa Calm     79% 0.00in /  0mm 0 W/m2
23:09 62 °F /  16.7 °C 55.5 °F /  13.1 °C 29.92in /  1013.1hPa Calm     79% 0.00in /  0mm 0 W/m2
23:14 61.9 °F /  16.6 °C 55.4 °F /  13 °C 29.92in /  1013.1hPa Calm     79.1% 0.00in /  0mm 0 W/m2
23:19 61.8 °F /  16.6 °C 55.6 °F /  13.1 °C 29.93in /  1013.4hPa Calm     80% 0.00in /  0mm 0 W/m2
23:24 61.7 °F /  16.5 °C 55.5 °F /  13.1 °C 29.92in /  1013.1hPa Calm     80% 0.00in /  0mm 0 W/m2
23:29 61.6 °F /  16.4 °C 55.4 °F /  13 °C 29.92in /  1013.1hPa Calm     80% 0.00in /  0mm 0 W/m2
23:34 61.5 °F /  16.4 °C 55.3 °F /  12.9 °C 29.93in /  1013.4hPa Calm     80% 0.00in /  0mm 0 W/m2
23:39 61.5 °F /  16.4 °C 55.4 °F /  13 °C 29.93in /  1013.4hPa Calm     80.5% 0.00in /  0mm 0 W/m2
23:44 61.4 °F /  16.3 °C 55.4 °F /  13 °C 29.93in /  1013.4hPa Calm     80.8% 0.00in /  0mm 0 W/m2
23:49 61.3 °F /  16.3 °C 55.4 °F /  13 °C 29.93in /  1013.4hPa Calm     80.9% 0.00in /  0mm 0 W/m2
23:54 61.2 °F /  16.2 °C 55.4 °F /  13 °C 29.93in /  1013.4hPa Calm     81% 0.00in /  0mm 0 W/m2
23:59 61.2 °F /  16.2 °C 55.4 °F /  13 °C 29.93in /  1013.4hPa Calm     81.2% 0.00in /  0mm 0 W/m2
Hartford County Weather
Compliments of Weather Underground - 2 mb